logo
Search for airport 
image banner adimage banner adimage banner ad
image banner ad

VIJU - Jammu

Located in Jammu, India

ICAO - VIJU, IATA - IXJ

Data provided by Airmate  

General information

Coordinates: N32°41'36" E74°50'22"
Elevation is 964 feet MSL.
Magnetic variation is 2° East
View others Airports in Jammu and Kashmir

Operational data

Special qualification required
Current time UTC:
Current local time:
Weather
TAF: TAF VIJU 220330Z 2206/2218 15010KT 6000 NSC TEMPO 2210/2212 FEW025 FEW030TCU BECMG 2212/2213 32010KT BECMG 2217/2218 04010KT
View NOTAMs / SUP AIP / TFR affecting this airport [VIEW]
Communications frequencies: [VIEW]

Runways:

RWY identifierQFULength (ft)Width (ft)SurfaceLDA (ft)
18177°8000151UNK
36357°8000151UNK

Airport contact information

Address: Jammu India

Satellite view of VIJU